Time;durP1;ratioP1;P1;durP2;ratioP2;P2;SDS_P1;SDS_P2;PMS_P1;PMS_P2;Temp;Humidity;BMP_temperature;BMP_pressure;BME280_temperature;BME280_humidity;BME280_pressure;Samples;Min_cycle;Max_cycle;Signal;HPM_P1;HPM_P2
2023/04/13 00:01:12;;;;;;;11.50;6.00;;;;;;;4.97;98.43;99234.45;105593;1256;62168;-70
2023/04/13 00:03:39;;;;;;;12.70;6.50;;;;;;;4.95;98.33;99235.67;105704;1255;62494;-72
2023/04/13 00:06:09;;;;;;;15.30;6.20;;;;;;;4.93;98.66;99236.41;105709;1256;75660;-72
2023/04/13 00:08:37;;;;;;;14.70;7.10;;;;;;;4.92;98.96;99233.23;106604;1255;69887;-71
2023/04/13 00:11:06;;;;;;;14.80;7.10;;;;;;;4.90;99.53;99229.56;105756;1255;70149;-72
2023/04/13 00:13:39;;;;;;;11.80;6.70;;;;;;;4.92;100.00;99225.71;106677;1256;62138;-71
2023/04/13 00:16:11;;;;;;;13.30;7.10;;;;;;;4.94;99.99;99223.19;105618;1258;62378;-71
2023/04/13 00:18:38;;;;;;;14.20;7.60;;;;;;;4.97;100.00;99218.33;105745;1255;74379;-74
2023/04/13 00:21:06;;;;;;;14.50;8.10;;;;;;;4.99;100.00;99216.66;105551;1256;71205;-71
2023/04/13 00:23:35;;;;;;;15.50;8.20;;;;;;;5.01;100.00;99217.23;105824;1254;71530;-74
2023/04/13 00:26:02;;;;;;;13.10;7.10;;;;;;;5.04;99.98;99213.92;106341;1254;62318;-73
2023/04/13 00:28:28;;;;;;;14.40;8.00;;;;;;;5.05;99.93;99218.05;105559;1254;62207;-70
2023/04/13 00:30:55;;;;;;;13.10;7.80;;;;;;;5.05;99.97;99214.00;105604;1256;75795;-71
2023/04/13 00:33:22;;;;;;;14.90;8.20;;;;;;;5.06;99.95;99212.14;106553;1258;70298;-71
2023/04/13 00:35:49;;;;;;;13.70;8.30;;;;;;;5.08;99.99;99209.59;105990;1255;71550;-70
2023/04/13 00:38:17;;;;;;;14.00;8.00;;;;;;;5.11;99.88;99208.58;105555;1261;62449;-71
2023/04/13 00:40:43;;;;;;;14.70;8.00;;;;;;;5.12;99.60;99209.36;105782;1254;62452;-73
2023/04/13 00:43:10;;;;;;;12.90;8.10;;;;;;;5.14;99.45;99206.92;105666;1256;75517;-72
2023/04/13 00:45:38;;;;;;;14.70;8.20;;;;;;;5.14;99.08;99205.98;106614;1255;71167;-71
2023/04/13 00:48:09;;;;;;;12.80;8.40;;;;;;;5.14;99.02;99205.42;105742;1255;70828;-71
2023/04/13 00:50:36;;;;;;;14.40;8.20;;;;;;;5.14;98.84;99207.34;105879;1255;62610;-71
2023/04/13 00:53:05;;;;;;;13.10;7.40;;;;;;;5.15;98.64;99207.46;106563;1257;62159;-71
2023/04/13 00:55:41;;;;;;;15.50;7.60;;;;;;;5.17;98.26;99204.48;105743;1261;75599;-71
2023/04/13 00:58:08;;;;;;;13.80;7.60;;;;;;;5.16;97.99;99203.45;106279;1254;70049;-72
2023/04/13 01:00:37;;;;;;;12.80;7.30;;;;;;;5.15;97.96;99208.16;105540;1256;71459;-73
2023/04/13 01:03:05;;;;;;;13.40;7.50;;;;;;;5.14;97.61;99204.39;106224;1257;62080;-72
2023/04/13 01:05:49;;;;;;;13.80;7.20;;;;;;;5.14;97.24;99204.58;105693;1258;62433;-72
2023/04/13 01:08:19;;;;;;;12.10;7.30;;;;;;;5.11;96.95;99209.08;106223;1255;74296;-71
2023/04/13 01:11:00;;;;;;;11.50;7.30;;;;;;;5.08;96.90;99211.77;105895;1255;71903;-72
2023/04/13 01:13:33;;;;;;;12.20;7.00;;;;;;;5.06;96.71;99214.61;105697;1258;70832;-71
2023/04/13 01:16:18;;;;;;;13.10;7.60;;;;;;;5.03;96.78;99210.19;105743;1256;62150;-70
2023/04/13 01:18:51;;;;;;;11.70;7.40;;;;;;;5.00;96.66;99203.35;105869;1254;62523;-71
2023/04/13 01:21:21;;;;;;;12.30;7.40;;;;;;;4.99;96.80;99212.45;105843;1256;74028;-71
2023/04/13 01:24:23;;;;;;;14.10;7.70;;;;;;;4.96;96.81;99213.27;106306;1256;68989;-71
2023/04/13 01:27:14;;;;;;;12.20;6.90;;;;;;;4.95;96.76;99213.05;106043;1255;73949;-71
2023/04/13 01:29:44;;;;;;;14.10;8.00;;;;;;;4.95;96.51;99208.34;105556;1256;63210;-71
2023/04/13 01:32:11;;;;;;;10.50;7.00;;;;;;;4.93;96.40;99208.15;105806;1256;62042;-71
2023/04/13 01:34:38;;;;;;;13.80;7.50;;;;;;;4.89;96.33;99206.98;105768;1253;75522;-71
2023/04/13 01:37:05;;;;;;;10.40;7.10;;;;;;;4.84;96.32;99204.63;105705;1255;69711;-73
2023/04/13 01:39:32;;;;;;;12.70;7.10;;;;;;;4.77;96.33;99205.30;105816;1258;72405;-70
2023/04/13 01:42:00;;;;;;;13.10;7.70;;;;;;;4.69;96.46;99201.13;106463;1256;62720;-70
2023/04/13 01:44:31;;;;;;;12.70;7.60;;;;;;;4.61;96.81;99198.87;106461;1255;62313;-70
2023/04/13 01:47:14;;;;;;;11.70;6.70;;;;;;;4.54;97.39;99194.70;105908;1256;74036;-71
2023/04/13 01:49:51;;;;;;;12.20;7.70;;;;;;;4.50;97.94;99198.35;105863;1258;71212;-73
2023/04/13 01:52:19;;;;;;;14.20;7.10;;;;;;;4.48;98.40;99196.26;105723;1255;72731;-70
2023/04/13 01:54:48;;;;;;;12.80;7.90;;;;;;;4.47;99.01;99203.18;105753;1258;62404;-72
2023/04/13 01:57:16;;;;;;;12.10;7.60;;;;;;;4.47;99.16;99198.09;105729;1259;62554;-71
2023/04/13 01:59:43;;;;;;;12.40;7.10;;;;;;;4.47;99.56;99197.60;106662;1254;74366;-70
2023/04/13 02:02:13;;;;;;;10.90;7.30;;;;;;;4.48;99.65;99194.35;106271;1256;70196;-71
2023/04/13 02:04:41;;;;;;;11.50;6.90;;;;;;;4.49;99.96;99194.97;106947;1257;72968;-71
2023/04/13 02:07:11;;;;;;;12.20;7.70;;;;;;;4.51;99.98;99194.72;105652;1255;62583;-72
2023/04/13 02:09:37;;;;;;;13.00;7.10;;;;;;;4.53;99.95;99193.33;105833;1256;62196;-69
2023/04/13 02:12:04;;;;;;;12.60;7.60;;;;;;;4.54;99.99;99192.27;105636;1256;62171;-70
2023/04/13 02:14:31;;;;;;;12.20;7.50;;;;;;;4.55;99.78;99192.01;105714;1260;70320;-70
2023/04/13 02:16:57;;;;;;;13.80;7.80;;;;;;;4.56;99.77;99200.17;105780;1256;72012;-70
2023/04/13 02:19:24;;;;;;;10.50;7.20;;;;;;;4.55;99.87;99200.45;106428;1255;62129;-70
2023/04/13 02:21:52;;;;;;;11.50;7.80;;;;;;;4.56;99.69;99204.03;106564;1254;61933;-71
2023/04/13 02:24:18;;;;;;;12.90;7.50;;;;;;;4.53;99.31;99198.59;105638;1253;74685;-70
2023/04/13 02:26:45;;;;;;;11.10;8.10;;;;;;;4.50;99.33;99201.53;106545;1255;61996;-71
2023/04/13 02:29:12;;;;;;;11.30;7.00;;;;;;;4.47;99.12;99203.67;108819;1253;72753;-69
2023/04/13 02:31:42;;;;;;;13.00;7.00;;;;;;;4.43;99.30;99202.21;107209;1254;62049;-71
2023/04/13 02:34:10;;;;;;;11.90;7.80;;;;;;;4.39;99.01;99197.14;106693;1254;62593;-69
2023/04/13 02:36:38;;;;;;;11.70;7.50;;;;;;;4.34;98.91;99196.48;106721;1258;75577;-69
2023/04/13 02:39:04;;;;;;;11.90;7.40;;;;;;;4.29;99.02;99192.99;107092;1255;70583;-71
2023/04/13 02:41:31;;;;;;;11.10;7.60;;;;;;;4.25;99.01;99187.83;106208;1254;71197;-70
2023/04/13 02:43:58;;;;;;;13.30;7.60;;;;;;;4.20;99.16;99191.02;105495;1256;62067;-72
2023/04/13 02:46:26;;;;;;;11.20;7.20;;;;;;;4.17;99.27;99189.96;105625;1255;62042;-71
2023/04/13 02:48:55;;;;;;;10.00;7.00;;;;;;;4.15;99.76;99191.81;105477;1259;76757;-75
2023/04/13 02:51:21;;;;;;;10.70;7.50;;;;;;;4.15;100.00;99188.42;105509;1256;70887;-71
2023/04/13 02:53:48;;;;;;;11.00;7.00;;;;;;;4.15;100.00;99189.52;106500;1257;62537;-71
2023/04/13 02:56:15;;;;;;;12.80;7.80;;;;;;;4.16;100.00;99185.70;105654;1256;63124;-71
2023/04/13 02:58:43;;;;;;;12.00;7.60;;;;;;;4.17;100.00;99188.52;106420;1254;62154;-71
2023/04/13 03:01:10;;;;;;;11.10;7.20;;;;;;;4.18;100.00;99186.88;105681;1256;73806;-71
2023/04/13 03:03:37;;;;;;;14.10;7.70;;;;;;;4.18;100.00;99185.99;105524;1254;71391;-72
2023/04/13 03:06:04;;;;;;;12.80;7.20;;;;;;;4.18;100.00;99188.75;105466;1260;71552;-72
2023/04/13 03:08:31;;;;;;;9.50;7.10;;;;;;;4.18;100.00;99183.66;105808;1257;61918;-71
2023/04/13 03:10:57;;;;;;;11.90;6.80;;;;;;;4.19;100.00;99182.52;106300;1256;62545;-71
2023/04/13 03:13:25;;;;;;;13.10;7.50;;;;;;;4.20;100.00;99182.68;105579;1254;75525;-70
2023/04/13 03:15:51;;;;;;;10.10;6.40;;;;;;;4.20;100.00;99184.51;106144;1254;71196;-71
2023/04/13 03:18:18;;;;;;;9.10;6.40;;;;;;;4.21;100.00;99186.48;105846;1256;72643;-71
2023/04/13 03:20:45;;;;;;;10.90;6.00;;;;;;;4.22;100.00;99184.46;105746;1256;63108;-71
2023/04/13 03:23:11;;;;;;;10.30;6.60;;;;;;;4.23;100.00;99184.69;105638;1254;62036;-70
2023/04/13 03:25:38;;;;;;;8.80;6.10;;;;;;;4.25;100.00;99190.75;105486;1261;75451;-70
2023/04/13 03:28:05;;;;;;;8.80;5.80;;;;;;;4.25;99.92;99187.86;106260;1256;62056;-74
2023/04/13 03:30:31;;;;;;;9.70;5.70;;;;;;;4.23;99.79;99181.58;105845;1258;73729;-71
2023/04/13 03:32:58;;;;;;;8.20;5.40;;;;;;;4.22;99.98;99178.85;105458;1256;62159;-70
2023/04/13 03:35:25;;;;;;;9.10;5.40;;;;;;;4.24;100.00;99180.55;106403;1257;62182;-72
2023/04/13 03:37:51;;;;;;;9.30;5.80;;;;;;;4.26;100.00;99179.53;105719;1257;75218;-72
2023/04/13 03:40:18;;;;;;;7.00;4.50;;;;;;;4.27;100.00;99177.84;105624;1256;68759;-70
2023/04/13 03:42:45;;;;;;;8.10;5.20;;;;;;;4.29;100.00;99177.90;105725;1253;71588;-72
2023/04/13 03:45:12;;;;;;;9.00;5.20;;;;;;;4.31;99.97;99184.48;105737;1258;62049;-72
2023/04/13 03:47:38;;;;;;;8.30;4.50;;;;;;;4.33;99.73;99180.77;106601;1257;62442;-70
2023/04/13 03:50:05;;;;;;;6.00;3.70;;;;;;;4.34;99.78;99178.73;105737;1258;75369;-70
2023/04/13 03:52:32;;;;;;;7.50;3.90;;;;;;;4.38;99.48;99182.55;106273;1258;70666;-70
2023/04/13 03:54:59;;;;;;;5.90;3.70;;;;;;;4.40;99.39;99187.73;106182;1258;73865;-71
2023/04/13 03:57:26;;;;;;;6.30;3.80;;;;;;;4.42;98.90;99186.06;105376;1255;62499;-74
2023/04/13 03:59:53;;;;;;;5.90;3.50;;;;;;;4.43;98.62;99190.69;105555;1256;62075;-71
2023/04/13 04:02:20;;;;;;;6.20;3.40;;;;;;;4.43;98.34;99191.95;105790;1258;63262;-71
2023/04/13 04:04:47;;;;;;;5.50;3.00;;;;;;;4.41;97.91;99194.75;106067;1254;69935;-71
2023/04/13 04:07:13;;;;;;;4.60;2.90;;;;;;;4.40;98.01;99192.28;106215;1259;70768;-71
2023/04/13 04:09:41;;;;;;;5.10;2.90;;;;;;;4.39;97.69;99196.55;105760;1259;62851;-70
2023/04/13 04:12:08;;;;;;;6.20;3.10;;;;;;;4.39;97.46;99193.99;106663;1258;62030;-71
2023/04/13 04:14:34;;;;;;;4.40;2.60;;;;;;;4.39;97.56;99193.60;105695;1256;74318;-71
2023/04/13 04:17:01;;;;;;;5.00;2.30;;;;;;;4.38;97.27;99196.13;105482;1260;70846;-72
2023/04/13 04:19:27;;;;;;;4.60;2.40;;;;;;;4.39;97.17;99193.95;105675;1258;62117;-70
2023/04/13 04:21:56;;;;;;;4.30;2.40;;;;;;;4.39;96.90;99195.17;105597;1260;62089;-71
2023/04/13 04:24:26;;;;;;;3.70;2.10;;;;;;;4.39;96.71;99194.16;105962;1255;62071;-70
2023/04/13 04:26:54;;;;;;;5.30;2.30;;;;;;;4.38;96.71;99194.77;106069;1260;75494;-73
2023/04/13 04:29:21;;;;;;;4.30;2.10;;;;;;;4.39;96.63;99202.73;105427;1260;70939;-71
2023/04/13 04:31:52;;;;;;;3.80;2.20;;;;;;;4.38;96.53;99205.95;106298;1259;72809;-71
2023/04/13 04:34:19;;;;;;;4.20;2.20;;;;;;;4.37;96.51;99213.77;105788;1256;62099;-72
2023/04/13 04:36:50;;;;;;;4.00;2.10;;;;;;;4.39;96.75;99216.17;105653;1255;62043;-71
2023/04/13 04:39:22;;;;;;;4.10;2.00;;;;;;;4.41;96.66;99218.40;105705;1259;73747;-73
2023/04/13 04:41:53;;;;;;;4.00;1.80;;;;;;;4.45;96.53;99218.48;105746;1258;70060;-70
2023/04/13 04:44:23;;;;;;;4.30;2.20;;;;;;;4.49;96.61;99220.64;106292;1256;74742;-71
2023/04/13 04:46:51;;;;;;;4.10;1.70;;;;;;;4.56;96.51;99225.72;106383;1256;62140;-71
2023/04/13 04:49:20;;;;;;;3.30;1.50;;;;;;;4.62;96.32;99225.35;105663;1255;62180;-70
2023/04/13 04:51:48;;;;;;;3.30;1.60;;;;;;;4.71;96.29;99225.08;106828;1258;75761;-70
2023/04/13 04:54:16;;;;;;;2.90;1.40;;;;;;;4.79;96.08;99225.85;105729;1261;71023;-71
2023/04/13 04:56:44;;;;;;;2.50;1.40;;;;;;;4.88;95.95;99221.52;105634;1256;71415;-71
2023/04/13 04:59:10;;;;;;;2.30;1.10;;;;;;;4.99;95.67;99223.12;105493;1259;62497;-71
2023/04/13 05:01:38;;;;;;;3.60;1.70;;;;;;;5.09;95.32;99224.41;105878;1255;61907;-70
2023/04/13 05:04:06;;;;;;;3.50;1.40;;;;;;;5.19;94.70;99225.54;106243;1258;74158;-70
2023/04/13 05:06:32;;;;;;;3.70;1.20;;;;;;;5.29;94.49;99229.97;105898;1261;71228;-72
2023/04/13 05:09:00;;;;;;;4.00;1.00;;;;;;;5.40;94.22;99234.91;106469;1256;73003;-71
2023/04/13 05:11:28;;;;;;;3.40;1.00;;;;;;;5.49;93.82;99238.02;105539;1260;62160;-72
2023/04/13 05:13:55;;;;;;;4.80;1.10;;;;;;;5.59;93.50;99238.41;105935;1257;62068;-70
2023/04/13 05:16:22;;;;;;;2.80;0.80;;;;;;;5.68;92.94;99236.56;106260;1254;75521;-70
2023/04/13 05:18:50;;;;;;;3.30;1.00;;;;;;;5.75;92.27;99225.56;105853;1257;70044;-69
2023/04/13 05:21:17;;;;;;;3.70;0.90;;;;;;;5.80;91.70;99224.96;106397;1255;71274;-70
2023/04/13 05:23:44;;;;;;;2.20;0.90;;;;;;;5.85;91.30;99225.61;105871;1257;63210;-72
2023/04/13 05:26:11;;;;;;;2.30;0.80;;;;;;;5.88;90.63;99216.66;106539;1255;62054;-71
2023/04/13 05:28:38;;;;;;;1.40;0.60;;;;;;;5.95;90.27;99221.32;105922;1255;75461;-74
2023/04/13 05:31:07;;;;;;;3.40;1.00;;;;;;;6.01;89.95;99229.55;105951;1257;71554;-70
2023/04/13 05:33:34;;;;;;;3.60;0.80;;;;;;;6.09;89.35;99235.61;105821;1257;74206;-70
2023/04/13 05:36:03;;;;;;;1.60;0.70;;;;;;;6.17;88.88;99236.24;105459;1257;309588;-71
2023/04/13 05:38:30;;;;;;;3.30;0.90;;;;;;;6.26;88.35;99239.73;105724;1255;62062;-69
2023/04/13 05:40:57;;;;;;;2.50;0.90;;;;;;;6.34;87.77;99237.88;106362;1258;75294;-71
2023/04/13 05:43:25;;;;;;;1.40;0.60;;;;;;;6.42;87.40;99234.34;106219;1258;69750;-70
2023/04/13 05:45:51;;;;;;;2.70;0.80;;;;;;;6.49;86.89;99233.13;105857;1260;73089;-70
2023/04/13 05:48:18;;;;;;;1.70;0.70;;;;;;;6.58;86.41;99231.40;105707;1257;62112;-70
2023/04/13 05:50:45;;;;;;;2.30;0.90;;;;;;;6.63;85.67;99230.41;105669;1261;63671;-69
2023/04/13 05:53:11;;;;;;;2.60;0.70;;;;;;;6.72;85.87;99230.43;105562;1257;74336;-70
2023/04/13 05:55:41;;;;;;;3.40;0.80;;;;;;;6.82;85.28;99233.42;107727;1254;62155;-70
2023/04/13 05:58:07;;;;;;;2.90;0.80;;;;;;;6.90;84.45;99228.92;108021;1261;71452;-68
2023/04/13 06:00:34;;;;;;;4.40;0.70;;;;;;;6.94;83.79;99232.98;108256;1256;61965;-69
2023/04/13 06:03:01;;;;;;;2.80;0.70;;;;;;;6.97;83.94;99234.02;108168;1257;62075;-68
2023/04/13 06:05:30;;;;;;;2.10;0.70;;;;;;;7.00;83.71;99236.27;108070;1259;74386;-69
2023/04/13 06:07:58;;;;;;;2.70;0.80;;;;;;;7.10;83.47;99242.64;108336;1255;72099;-70
2023/04/13 06:10:25;;;;;;;2.60;0.80;;;;;;;7.18;83.36;99242.94;107468;1258;70746;-71
2023/04/13 06:12:52;;;;;;;2.90;0.90;;;;;;;7.29;82.99;99245.20;106989;1256;62577;-69
2023/04/13 06:15:22;;;;;;;3.00;0.70;;;;;;;7.42;82.39;99247.54;106011;1259;62229;-69
2023/04/13 06:17:51;;;;;;;3.20;0.80;;;;;;;7.55;82.10;99245.30;105847;1254;74092;-69
2023/04/13 06:20:20;;;;;;;2.30;0.70;;;;;;;7.68;82.39;99250.40;106911;1256;72840;-69
2023/04/13 06:22:47;;;;;;;3.40;0.70;;;;;;;7.85;82.08;99257.91;106405;1259;71941;-66
2023/04/13 06:25:13;;;;;;;2.10;0.80;;;;;;;7.96;80.40;99260.14;105908;1257;63585;-70
2023/04/13 06:27:42;;;;;;;2.40;1.00;;;;;;;8.10;79.67;99264.56;106075;1255;61973;-70
2023/04/13 06:30:09;;;;;;;3.10;0.90;;;;;;;8.29;79.82;99263.74;106746;1255;75044;-70
2023/04/13 06:32:36;;;;;;;3.00;0.90;;;;;;;8.46;79.16;99263.33;106443;1254;70170;-72
2023/04/13 06:35:04;;;;;;;4.20;0.90;;;;;;;8.62;78.06;99264.17;106200;1257;72410;-75
2023/04/13 06:37:34;;;;;;;4.00;0.80;;;;;;;8.81;78.22;99266.64;106894;1254;62023;-72
2023/04/13 06:40:14;;;;;;;3.30;0.90;;;;;;;8.95;77.31;99266.07;106129;1263;62110;-70
2023/04/13 06:42:41;;;;;;;2.70;0.70;;;;;;;8.98;76.48;99265.95;106011;1261;74680;-70
2023/04/13 06:45:10;;;;;;;1.90;0.60;;;;;;;8.98;76.05;99270.06;106042;1254;71328;-70
2023/04/13 06:47:41;;;;;;;2.30;0.80;;;;;;;8.98;75.52;99274.59;106884;1258;70663;-70
2023/04/13 06:50:10;;;;;;;3.50;0.70;;;;;;;9.02;75.67;99273.33;106500;1259;61980;-71
2023/04/13 06:52:36;;;;;;;3.30;0.70;;;;;;;9.03;74.52;99276.92;106459;1254;62147;-70
2023/04/13 06:55:04;;;;;;;3.60;0.80;;;;;;;9.04;74.39;99278.91;106455;1254;62078;-71
2023/04/13 06:57:31;;;;;;;2.00;0.60;;;;;;;9.05;73.70;99283.64;107242;1254;68929;-70
2023/04/13 06:59:58;;;;;;;2.30;0.70;;;;;;;9.04;73.25;99285.10;109130;1254;72707;-70
2023/04/13 07:02:25;;;;;;;3.10;0.90;;;;;;;9.07;73.25;99290.32;107547;1257;62652;-70
2023/04/13 07:04:52;;;;;;;2.80;0.60;;;;;;;9.09;73.41;99289.25;105562;1261;62167;-71
2023/04/13 07:07:19;;;;;;;3.30;0.90;;;;;;;9.10;73.11;99294.27;107571;1254;73217;-69
2023/04/13 07:09:46;;;;;;;2.30;0.60;;;;;;;9.08;72.77;99300.52;106780;1254;71259;-73
2023/04/13 07:12:13;;;;;;;2.00;0.70;;;;;;;9.08;72.51;99301.95;106456;1254;70551;-73
2023/04/13 07:14:40;;;;;;;2.50;1.00;;;;;;;9.07;72.39;99296.79;105704;1254;62558;-70
2023/04/13 07:17:06;;;;;;;2.50;0.70;;;;;;;9.15;73.10;99303.33;105750;1254;62124;-70
2023/04/13 07:19:34;;;;;;;3.30;0.80;;;;;;;9.26;73.03;99303.99;105704;1254;75207;-70
2023/04/13 07:22:01;;;;;;;2.30;0.70;;;;;;;9.34;72.56;99307.30;105859;1267;69621;-72
2023/04/13 07:24:29;;;;;;;2.40;0.60;;;;;;;9.36;71.51;99318.46;106083;1257;73524;-70
2023/04/13 07:26:57;;;;;;;2.70;1.00;;;;;;;9.33;70.40;99325.63;106075;1260;62017;-70
2023/04/13 07:29:26;;;;;;;2.90;0.60;;;;;;;9.27;69.87;99334.85;106146;1254;62097;-71
2023/04/13 07:31:59;;;;;;;2.60;0.60;;;;;;;9.27;69.69;99338.48;105729;1257;75221;-71
2023/04/13 07:34:26;;;;;;;2.00;0.50;;;;;;;9.32;70.58;99341.30;106079;1258;71115;-70
2023/04/13 07:36:53;;;;;;;2.80;0.60;;;;;;;9.36;70.22;99347.70;105575;1260;71152;-73
2023/04/13 07:39:20;;;;;;;3.20;0.70;;;;;;;9.37;70.24;99347.46;105983;1256;62062;-71
2023/04/13 07:41:47;;;;;;;1.40;0.60;;;;;;;9.39;70.53;99347.03;105820;1259;62441;-70
2023/04/13 07:44:16;;;;;;;1.80;0.50;;;;;;;9.37;70.27;99350.84;105700;1254;74394;-70
2023/04/13 07:46:43;;;;;;;2.50;0.60;;;;;;;9.38;70.30;99354.67;106258;1257;71248;-71
2023/04/13 07:49:10;;;;;;;1.80;0.50;;;;;;;9.38;69.83;99352.39;106407;1257;71415;-70
2023/04/13 07:51:36;;;;;;;2.80;0.80;;;;;;;9.38;69.91;99360.30;105869;1255;62172;-73
2023/04/13 07:54:03;;;;;;;2.30;0.60;;;;;;;9.41;69.61;99360.14;106052;1253;62389;-72
2023/04/13 07:56:30;;;;;;;2.20;0.60;;;;;;;9.44;69.38;99364.74;105556;1254;62179;-70
2023/04/13 07:58:56;;;;;;;2.50;0.60;;;;;;;9.45;68.39;99365.60;105727;1254;72492;-71
2023/04/13 08:01:23;;;;;;;1.60;0.50;;;;;;;9.46;68.20;99370.37;105954;1260;73440;-72
2023/04/13 08:03:50;;;;;;;2.40;0.70;;;;;;;9.50;68.42;99373.35;106148;1258;62169;-71
2023/04/13 08:06:19;;;;;;;2.90;0.70;;;;;;;9.58;68.69;99380.16;105747;1255;62158;-74
2023/04/13 08:08:46;;;;;;;2.50;0.60;;;;;;;9.59;68.32;99379.56;106721;1255;74287;-73
2023/04/13 08:11:14;;;;;;;1.80;0.60;;;;;;;9.56;67.74;99385.62;105837;1258;62261;-74
2023/04/13 08:13:40;;;;;;;2.50;0.70;;;;;;;9.51;68.27;99390.00;105815;1254;71137;-71
2023/04/13 08:16:07;;;;;;;2.50;0.50;;;;;;;9.57;68.83;99385.83;105705;1260;62056;-75
2023/04/13 08:18:34;;;;;;;1.80;0.60;;;;;;;9.59;69.05;99390.15;105828;1257;63248;-72
2023/04/13 08:21:01;;;;;;;2.30;0.70;;;;;;;9.66;69.12;99393.21;106255;1258;62042;-70
2023/04/13 08:23:27;;;;;;;3.70;0.90;;;;;;;9.69;68.36;99401.98;105736;1260;69944;-70
2023/04/13 08:25:54;;;;;;;1.70;0.90;;;;;;;9.74;68.18;99405.86;106320;1260;62989;-73
2023/04/13 08:28:20;;;;;;;1.80;0.50;;;;;;;9.75;67.11;99406.60;105879;1256;62473;-71
2023/04/13 08:30:47;;;;;;;3.50;0.80;;;;;;;9.78;66.70;99411.20;105948;1254;62112;-73
2023/04/13 08:33:13;;;;;;;2.10;0.60;;;;;;;9.79;66.60;99415.12;105883;1254;63209;-73
2023/04/13 08:35:40;;;;;;;3.30;0.90;;;;;;;9.81;66.41;99412.46;105881;1254;62237;-70
2023/04/13 08:38:07;;;;;;;1.40;0.60;;;;;;;9.85;66.43;99420.67;105659;1254;62092;-72
2023/04/13 08:40:38;;;;;;;4.00;0.70;;;;;;;9.94;66.97;99421.49;106042;1254;62102;-71
2023/04/13 08:43:08;;;;;;;2.10;0.60;;;;;;;9.97;66.45;99423.91;106882;1254;60934;-70
2023/04/13 08:45:35;;;;;;;2.40;0.70;;;;;;;10.10;66.54;99420.41;106003;1254;74518;-70
2023/04/13 08:48:02;;;;;;;2.10;0.60;;;;;;;10.36;66.89;99422.35;106238;1258;70097;-69
2023/04/13 08:50:29;;;;;;;2.00;0.70;;;;;;;10.56;65.80;99424.02;106379;1254;71952;-69
2023/04/13 08:52:55;;;;;;;2.30;0.60;;;;;;;10.69;63.96;99426.00;106800;1253;62072;-70
2023/04/13 08:55:22;;;;;;;2.10;0.70;;;;;;;10.74;64.13;99426.48;106305;1260;62057;-71
2023/04/13 08:57:49;;;;;;;1.50;0.50;;;;;;;10.70;63.48;99436.23;106045;1254;62052;-70
2023/04/13 09:00:18;;;;;;;2.40;0.80;;;;;;;10.57;64.03;99443.04;106456;1254;71037;-71
2023/04/13 09:02:47;;;;;;;1.90;0.60;;;;;;;10.51;65.33;99445.77;106626;1254;71215;-70
2023/04/13 09:05:30;;;;;;;1.40;0.40;;;;;;;10.31;66.14;99457.25;109110;1254;60868;-70
2023/04/13 09:08:00;;;;;;;1.80;0.60;;;;;;;10.16;68.30;99459.39;107553;1256;60122;-74
2023/04/13 09:10:27;;;;;;;2.40;0.60;;;;;;;10.08;71.03;99461.70;106972;1254;76764;-70
2023/04/13 09:12:54;;;;;;;2.20;0.50;;;;;;;10.04;72.26;99461.62;106498;1260;69976;-70
2023/04/13 09:15:21;;;;;;;2.00;0.60;;;;;;;9.84;73.42;99461.95;106005;1257;72468;-70
2023/04/13 09:17:49;;;;;;;3.10;0.80;;;;;;;9.76;74.47;99468.32;105808;1255;62764;-74
2023/04/13 09:20:20;;;;;;;2.60;0.60;;;;;;;9.67;74.90;99471.31;106418;1260;63678;-75
2023/04/13 09:22:48;;;;;;;1.50;0.60;;;;;;;9.57;76.71;99476.45;105906;1257;75473;-72
2023/04/13 09:25:26;;;;;;;3.40;0.80;;;;;;;9.39;75.97;99478.95;105949;1258;70041;-71
2023/04/13 09:27:54;;;;;;;2.30;0.60;;;;;;;9.51;76.82;99479.00;105982;1254;72396;-71
2023/04/13 09:30:24;;;;;;;2.40;0.90;;;;;;;9.64;76.74;99479.81;106025;1254;62073;-71
2023/04/13 09:33:04;;;;;;;3.40;0.60;;;;;;;9.77;75.67;99483.70;105724;1254;62203;-71
2023/04/13 09:35:32;;;;;;;1.60;0.60;;;;;;;9.96;75.86;99485.49;105813;1253;75592;-72
2023/04/13 09:37:59;;;;;;;4.20;0.80;;;;;;;10.13;74.07;99485.88;106312;1260;72128;-72
2023/04/13 09:40:26;;;;;;;1.80;0.60;;;;;;;10.45;74.91;99477.71;105817;1254;72745;-72
2023/04/13 09:42:54;;;;;;;3.60;0.70;;;;;;;10.80;72.63;99488.09;105534;1260;62960;-71
2023/04/13 09:45:21;;;;;;;2.80;0.70;;;;;;;11.04;69.41;99486.05;106079;1254;62061;-69
2023/04/13 09:47:48;;;;;;;2.60;0.80;;;;;;;11.10;69.64;99487.91;108825;1253;75459;-71
2023/04/13 09:50:26;;;;;;;2.30;0.60;;;;;;;11.31;70.46;99492.84;106497;1254;70216;-72
2023/04/13 09:53:09;;;;;;;1.90;0.60;;;;;;;11.47;67.56;99498.10;106482;1258;71585;-71
2023/04/13 09:55:37;;;;;;;6.40;1.30;;;;;;;11.32;66.05;99495.81;107007;1255;62157;-69
2023/04/13 09:58:11;;;;;;;2.70;0.80;;;;;;;11.32;66.43;99493.73;106725;1254;62370;-73
2023/04/13 10:00:40;;;;;;;1.80;0.60;;;;;;;11.22;65.32;99491.04;106057;1257;73996;-71
2023/04/13 10:03:15;;;;;;;2.00;0.70;;;;;;;11.20;65.12;99496.15;106446;1255;72420;-72
2023/04/13 10:05:42;;;;;;;2.70;0.70;;;;;;;11.27;65.15;99489.09;106785;1254;73722;-71
2023/04/13 10:08:24;;;;;;;4.30;1.00;;;;;;;11.38;64.15;99501.20;106310;1254;62140;-71
2023/04/13 10:11:06;;;;;;;2.20;0.60;;;;;;;11.52;64.28;99502.52;105988;1254;62162;-72
2023/04/13 10:13:40;;;;;;;2.40;1.10;;;;;;;11.58;63.19;99503.01;106668;1254;75227;-70
2023/04/13 10:16:28;;;;;;;1.80;0.90;;;;;;;11.54;62.57;99501.75;106450;1257;71180;-73
2023/04/13 10:19:28;;;;;;;4.70;1.00;;;;;;;11.64;60.69;99509.64;106135;1257;72242;-71
2023/04/13 10:21:55;;;;;;;3.90;1.40;;;;;;;11.74;61.08;99508.20;105730;1254;62015;-71
2023/04/13 10:24:22;;;;;;;1.90;0.70;;;;;;;11.79;61.64;99501.52;106037;1257;62043;-71
2023/04/13 10:26:58;;;;;;;2.50;0.80;;;;;;;11.90;60.10;99501.52;105699;1256;75170;-73
2023/04/13 10:29:31;;;;;;;2.90;0.90;;;;;;;11.92;59.30;99511.13;106146;1256;71188;-71
2023/04/13 10:32:01;;;;;;;2.20;0.80;;;;;;;11.98;58.89;99506.67;106164;1254;72733;-72
2023/04/13 10:34:30;;;;;;;4.60;1.10;;;;;;;12.06;58.54;99519.59;106448;1254;62023;-70
2023/04/13 10:37:02;;;;;;;2.60;0.70;;;;;;;12.18;58.08;99506.23;105955;1254;62175;-73
2023/04/13 10:39:31;;;;;;;1.60;0.60;;;;;;;12.34;57.52;99510.05;106007;1257;75670;-73
2023/04/13 10:42:08;;;;;;;2.50;0.70;;;;;;;12.47;57.24;99522.19;105952;1260;68999;-72
2023/04/13 10:44:46;;;;;;;2.00;0.60;;;;;;;12.51;56.79;99520.61;105953;1254;71287;-71
2023/04/13 10:47:14;;;;;;;17.20;2.20;;;;;;;12.74;57.47;99518.04;105900;1253;62165;-71
2023/04/13 10:49:46;;;;;;;2.00;0.80;;;;;;;12.90;55.82;99523.64;106467;1255;62064;-73
2023/04/13 10:52:14;;;;;;;2.20;0.70;;;;;;;12.95;55.54;99524.20;106496;1254;75101;-74
2023/04/13 10:54:43;;;;;;;1.70;0.80;;;;;;;13.04;55.39;99530.39;106094;1254;69561;-72
2023/04/13 10:57:11;;;;;;;2.20;0.90;;;;;;;13.04;52.98;99537.30;105990;1260;72690;-72
2023/04/13 10:59:42;;;;;;;2.10;0.90;;;;;;;13.01;52.83;99533.80;105951;1260;63408;-72
2023/04/13 11:02:30;;;;;;;2.70;0.70;;;;;;;13.10;52.72;99535.49;105911;1255;62042;-72
2023/04/13 11:04:58;;;;;;;7.20;1.60;;;;;;;13.25;53.79;99533.80;106164;1254;75539;-72
2023/04/13 11:07:25;;;;;;;8.00;1.50;;;;;;;13.42;52.44;99532.53;106574;1254;69988;-72
2023/04/13 11:09:58;;;;;;;4.80;1.10;;;;;;;13.62;50.91;99547.42;106537;1254;72631;-73
2023/04/13 11:12:28;;;;;;;1.90;0.60;;;;;;;13.67;49.91;99542.67;106040;1258;62156;-73
2023/04/13 11:14:55;;;;;;;2.30;0.70;;;;;;;13.78;48.49;99539.15;106648;1255;62057;-74
2023/04/13 11:17:21;;;;;;;3.90;0.70;;;;;;;13.81;48.86;99547.61;106278;1254;75415;-72
2023/04/13 11:19:50;;;;;;;2.20;0.70;;;;;;;13.92;47.83;99553.34;106127;1257;71436;-72
2023/04/13 11:22:21;;;;;;;1.90;0.60;;;;;;;13.98;47.88;99553.04;106629;1254;72788;-73
2023/04/13 11:24:49;;;;;;;8.20;1.50;;;;;;;14.02;48.17;99564.77;105797;1254;62616;-73
2023/04/13 11:27:20;;;;;;;4.80;1.20;;;;;;;13.96;48.19;99568.34;105815;1258;62062;-72
2023/04/13 11:30:05;;;;;;;1.90;0.70;;;;;;;13.95;48.24;99573.80;106289;1255;74292;-74
2023/04/13 11:32:32;;;;;;;2.20;0.80;;;;;;;13.94;47.26;99569.55;105964;1257;71219;-73
2023/04/13 11:35:13;;;;;;;1.50;0.60;;;;;;;14.11;47.28;99562.65;106189;1259;72022;-73
2023/04/13 11:37:48;;;;;;;1.60;0.60;;;;;;;14.27;47.09;99565.22;105871;1256;62263;-72